CYFC

Fredericton Airport

Fredericton, New Brunswick, Canada
METAR CYFC 221300Z AUTO 25009G15KT 9SM CLR 01/M05 A2997 RMK SLP151
Observed Flight Rules
Oct-22 @ 13:00 UTC (an hour ago) Visual Flight Rules
Wind Visibility Clouds
250° at 9 knots
 Gusting to 15 knots
9 miles
  • Clear skies
Temperatures Readings
Current 1°C / 34°F
Dewpoint -5°C / 23°F
Humidity 65%
Altimeter 29.97" Hg
Pressure 1015.1 hPa
Elevation 20
METAR CYFC 221300Z AUTO 25009G15KT 9SM CLR 01/M05 A2997 RMK SLP151
Observed Flight Rules
Oct-22 @ 13:00 UTC
(an hour ago)
VFR
Wind Visibility
250° at 9 knots
 Gusting to 15 knots
9 miles
Clouds
  • Clear skies
Temperature Dewpoint
1°C / 34°F -5°C / 23°F
Humidity Altimeter Pressure
65% 29.97" Hg 1015.1 hPa